Time;durP1;ratioP1;P1;durP2;ratioP2;P2;SDS_P1;SDS_P2;PMS_P1;PMS_P2;Temp;Humidity;BMP_temperature;BMP_pressure;BME280_temperature;BME280_humidity;BME280_pressure;Samples;Min_cycle;Max_cycle;Signal;HPM_P1;HPM_P2
2023/01/02 00:03:56;;;;;;;0.30;0.30;;;;;;;13.17;100.00;101170.13;10522649;28;20078;-85
2023/01/02 00:08:58;;;;;;;0.65;0.08;;;;;;;12.84;100.00;101176.38;10518199;28;20040;-84
2023/01/02 00:14:00;;;;;;;0.20;0.20;;;;;;;13.00;100.00;101162.91;10507283;28;20048;-84
2023/01/02 00:19:01;;;;;;;1.33;0.20;;;;;;;13.01;100.00;101164.66;10504685;28;20036;-84
2023/01/02 00:24:03;;;;;;;2.05;1.00;;;;;;;13.08;100.00;101144.06;10500809;28;20114;-84
2023/01/02 00:29:05;;;;;;;8.65;1.27;;;;;;;13.09;100.00;101143.22;10509417;28;20075;-84
2023/01/02 00:34:06;;;;;;;0.15;0.15;;;;;;;13.25;100.00;101127.16;10503145;28;20044;-85
2023/01/02 00:39:08;;;;;;;2.78;2.00;;;;;;;13.31;100.00;101136.75;10520833;28;20036;-84
2023/01/02 00:44:10;;;;;;;0.63;0.32;;;;;;;13.17;100.00;101133.91;10522714;28;20071;-85
2023/01/02 00:49:11;;;;;;;2.88;0.45;;;;;;;13.18;100.00;101146.00;10521079;28;20059;-85
2023/01/02 00:54:13;;;;;;;1.27;0.50;;;;;;;13.41;100.00;101138.69;10521308;28;20438;-86
2023/01/02 00:59:15;;;;;;;3.65;1.13;;;;;;;13.56;100.00;101132.94;10510561;28;20075;-85
2023/01/02 01:04:16;;;;;;;0.63;0.40;;;;;;;13.30;100.00;101128.13;10498580;28;20094;-86
2023/01/02 01:09:18;;;;;;;2.28;0.35;;;;;;;13.35;100.00;101109.22;10499773;28;20101;-84
2023/01/02 01:14:20;;;;;;;0.43;0.43;;;;;;;13.59;100.00;101055.31;10537526;28;20036;-85
2023/01/02 01:19:22;;;;;;;0.45;0.45;;;;;;;13.52;100.00;101043.09;10497481;28;20097;-85
2023/01/02 01:24:24;;;;;;;0.05;0.05;;;;;;;13.70;100.00;101031.31;10538458;28;20083;-85
2023/01/02 01:29:25;;;;;;;2.55;0.47;;;;;;;13.44;100.00;101024.03;10512891;28;20495;-84
2023/01/02 01:34:27;;;;;;;1.05;0.98;;;;;;;13.64;100.00;101025.19;10514866;28;20409;-84
2023/01/02 01:39:29;;;;;;;2.10;1.52;;;;;;;13.77;100.00;101002.06;10500626;28;20040;-84
2023/01/02 01:44:53;;;;;;;0.77;0.55;;;;;;;13.72;100.00;101004.59;10492855;28;20101;-85
2023/01/02 01:50:01;;;;;;;0.38;0.35;;;;;;;13.83;100.00;101006.47;10501916;28;20086;-85
2023/01/02 01:55:14;;;;;;;2.80;1.20;;;;;;;13.74;100.00;101002.91;10520979;28;20114;-84
2023/01/02 02:00:16;;;;;;;2.28;0.40;;;;;;;13.98;100.00;100996.31;10491906;28;20446;-83
2023/01/02 02:05:22;;;;;;;1.15;1.05;;;;;;;13.88;100.00;101008.28;10518458;28;20047;-86
2023/01/02 02:10:24;;;;;;;6.18;2.30;;;;;;;13.72;100.00;101014.09;10515846;28;20036;-84
2023/01/02 02:15:38;;;;;;;0.47;0.40;;;;;;;13.93;100.00;101010.91;10508694;28;20426;-84
2023/01/02 02:21:04;;;;;;;0.75;0.35;;;;;;;13.79;100.00;101010.75;10530463;28;20052;-85
2023/01/02 02:26:39;;;;;;;0.52;0.52;;;;;;;13.69;100.00;101014.91;10507540;28;20052;-86
2023/01/02 02:31:41;;;;;;;0.60;0.60;;;;;;;13.48;100.00;101023.22;10500776;28;20556;-86
2023/01/02 02:36:56;;;;;;;1.17;0.30;;;;;;;13.98;100.00;101032.59;10496622;28;20114;-85
2023/01/02 02:42:23;;;;;;;0.20;0.20;;;;;;;13.64;100.00;101032.06;10507195;28;20442;-88
2023/01/02 02:47:54;;;;;;;0.65;0.50;;;;;;;14.04;100.00;101024.00;10506943;28;20113;-89
2023/01/02 02:53:38;;;;;;;0.43;0.38;;;;;;;13.92;100.00;101023.00;10472695;28;20046;-90
2023/01/02 02:58:42;;;;;;;0.50;0.47;;;;;;;14.17;100.00;101022.47;10457427;28;20045;-90
2023/01/02 03:03:43;;;;;;;2.35;0.57;;;;;;;14.07;100.00;101018.88;10502891;28;20384;-88
2023/01/02 03:09:13;;;;;;;0.17;0.15;;;;;;;14.22;100.00;101037.22;10522117;28;20067;-90
2023/01/02 03:14:23;;;;;;;0.73;0.30;;;;;;;14.13;100.00;101037.09;10491139;28;20051;-90
2023/01/02 03:19:49;;;;;;;0.30;0.17;;;;;;;13.92;100.00;101082.56;10524348;28;20070;-89
2023/01/02 03:24:54;;;;;;;1.55;0.75;;;;;;;14.25;100.00;101096.88;10523987;28;20048;-90
2023/01/02 03:30:13;;;;;;;0.90;0.85;;;;;;;14.38;100.00;101084.94;10501841;28;20090;-90
2023/01/02 03:35:20;;;;;;;0.20;0.20;;;;;;;14.14;100.00;101069.94;10526384;28;20097;-89
2023/01/02 03:40:31;;;;;;;7.43;1.48;;;;;;;14.12;100.00;101066.44;10523434;28;20093;-89
2023/01/02 03:45:37;;;;;;;0.55;0.52;;;;;;;14.22;100.00;101077.81;10506377;28;20048;-90
2023/01/02 03:50:54;;;;;;;1.67;0.32;;;;;;;14.10;100.00;101069.03;10507250;28;20495;-90
2023/01/02 03:56:14;;;;;;;0.32;0.20;;;;;;;14.00;100.00;101064.53;10523740;28;20097;-90
2023/01/02 04:01:32;;;;;;;1.95;0.98;;;;;;;14.37;100.00;101083.19;10522003;28;20040;-89
2023/01/02 04:06:39;;;;;;;1.02;0.20;;;;;;;14.36;100.00;101067.63;10523003;28;20040;-89
2023/01/02 04:11:46;;;;;;;1.13;0.90;;;;;;;14.36;100.00;101070.22;10515784;28;20073;-88
2023/01/02 04:16:49;;;;;;;1.63;1.15;;;;;;;14.21;100.00;101051.03;10466630;28;20091;-89
2023/01/02 04:21:55;;;;;;;0.57;0.50;;;;;;;14.09;100.00;101069.84;10497363;28;20097;-88
2023/01/02 04:27:11;;;;;;;1.00;0.57;;;;;;;14.16;100.00;101068.25;10500613;28;20127;-89
2023/01/02 04:32:18;;;;;;;0.20;0.20;;;;;;;14.10;100.00;101069.03;10510041;28;20040;-89
2023/01/02 04:37:27;;;;;;;0.03;0.03;;;;;;;13.95;100.00;101054.16;10531625;28;20036;-89
2023/01/02 04:42:29;;;;;;;0.30;0.30;;;;;;;14.27;100.00;101058.88;10521387;28;20098;-89
2023/01/02 04:47:32;;;;;;;0.20;0.20;;;;;;;14.32;100.00;101055.50;10521267;28;20462;-88
2023/01/02 04:52:33;;;;;;;1.52;0.95;;;;;;;14.05;100.00;101062.91;10503833;28;20044;-88
2023/01/02 04:57:38;;;;;;;0.13;0.08;;;;;;;14.40;100.00;101059.91;10521247;28;20406;-87
2023/01/02 05:02:40;;;;;;;1.10;0.50;;;;;;;14.33;100.00;101059.81;10522607;28;20048;-88
2023/01/02 05:07:42;;;;;;;1.77;1.55;;;;;;;14.04;100.00;101063.75;10520315;28;20052;-87
2023/01/02 05:12:43;;;;;;;0.65;0.55;;;;;;;13.98;100.00;101078.31;10519632;28;20183;-88
2023/01/02 05:17:45;;;;;;;0.93;0.68;;;;;;;14.17;100.00;101082.06;10519549;28;20052;-88
2023/01/02 05:28:07;;;;;;;;;;;;;;;14.23;100.00;101088.19;10518965;28;20576;-88
2023/01/02 05:33:08;;;;;;;1.70;0.68;;;;;;;14.05;100.00;101091.41;10518742;28;19919;-87
2023/01/02 05:38:10;;;;;;;0.17;0.17;;;;;;;14.21;100.00;101096.81;10519329;28;20052;-87
2023/01/02 05:43:11;;;;;;;2.80;0.22;;;;;;;14.18;100.00;101100.22;10518448;28;20036;-87
2023/01/02 05:48:13;;;;;;;0.57;0.57;;;;;;;14.09;100.00;101075.03;10519645;28;20498;-87
2023/01/02 05:53:16;;;;;;;0.22;0.17;;;;;;;14.28;100.00;101078.75;10518648;28;20280;-86
2023/01/02 05:58:18;;;;;;;1.02;0.50;;;;;;;14.32;100.00;101074.50;10535303;28;20097;-86
2023/01/02 06:03:20;;;;;;;0.63;0.50;;;;;;;14.16;100.00;101070.84;10514259;28;20036;-87
2023/01/02 06:08:21;;;;;;;0.77;0.35;;;;;;;14.11;100.00;101069.91;10518581;28;20060;-87
2023/01/02 06:13:23;;;;;;;0.40;0.40;;;;;;;14.37;100.00;101064.19;10506898;28;20048;-87
2023/01/02 06:18:26;;;;;;;0.10;0.10;;;;;;;14.36;100.00;101057.25;10527311;28;20064;-87
2023/01/02 06:23:28;;;;;;;0.30;0.30;;;;;;;14.47;100.00;101053.09;10501474;28;20036;-82
2023/01/02 06:28:29;;;;;;;0.00;0.00;;;;;;;14.26;100.00;101046.75;10501937;28;20110;-83
2023/01/02 06:33:31;;;;;;;0.22;0.20;;;;;;;14.32;100.00;101051.16;10530683;28;20098;-83
2023/01/02 06:38:33;;;;;;;2.15;0.85;;;;;;;14.50;100.00;101027.19;10518693;28;20082;-83
2023/01/02 06:43:41;;;;;;;0.65;0.52;;;;;;;14.35;100.00;101046.03;10519787;28;20067;-83
2023/01/02 06:48:42;;;;;;;0.22;0.13;;;;;;;14.35;100.00;101042.56;10519532;28;20048;-83
2023/01/02 06:53:44;;;;;;;0.17;0.17;;;;;;;14.33;100.00;101065.00;10524919;28;20092;-87
2023/01/02 06:58:46;;;;;;;0.28;0.20;;;;;;;14.30;100.00;101060.63;10521665;28;20048;-86
2023/01/02 07:03:48;;;;;;;0.17;0.13;;;;;;;14.43;100.00;101069.44;10536179;28;20097;-87
2023/01/02 07:08:50;;;;;;;1.05;0.28;;;;;;;14.11;100.00;101077.69;10525170;28;20097;-86
2023/01/02 07:13:53;;;;;;;0.60;0.32;;;;;;;13.78;100.00;101138.47;10512754;28;20486;-87
2023/01/02 07:18:56;;;;;;;0.45;0.22;;;;;;;13.65;100.00;101158.09;10503934;28;20044;-87
2023/01/02 07:23:58;;;;;;;0.00;0.00;;;;;;;13.84;100.00;101182.59;10538058;28;20042;-87
2023/01/02 07:28:59;;;;;;;3.30;0.45;;;;;;;13.42;100.00;101193.94;10509584;28;20560;-89
2023/01/02 07:34:01;;;;;;;0.10;0.10;;;;;;;13.19;100.00;101297.81;10525374;28;20048;-91
2023/01/02 07:39:03;;;;;;;0.98;0.50;;;;;;;13.01;100.00;101314.66;10527502;28;20052;-89
2023/01/02 07:44:04;;;;;;;0.00;0.00;;;;;;;13.26;100.00;101314.31;10524996;28;20048;-88
2023/01/02 07:49:06;;;;;;;0.00;0.00;;;;;;;12.96;100.00;101299.88;10524891;28;20131;-88
2023/01/02 07:54:07;;;;;;;0.00;0.00;;;;;;;12.95;100.00;101278.31;10539957;28;20075;-87
2023/01/02 07:59:09;;;;;;;0.08;0.08;;;;;;;12.40;100.00;101289.97;10500505;28;20036;-89
2023/01/02 08:04:11;;;;;;;0.10;0.10;;;;;;;12.33;100.00;101274.28;10508933;28;20044;-88
2023/01/02 08:09:12;;;;;;;0.00;0.00;;;;;;;12.48;100.00;101278.97;10524876;28;20052;-89
2023/01/02 08:14:14;;;;;;;0.00;0.00;;;;;;;12.39;100.00;101296.84;10509098;28;20663;-89
2023/01/02 08:19:23;;;;;;;0.00;0.00;;;;;;;12.33;100.00;101305.31;10507867;28;20040;-89
2023/01/02 08:24:25;;;;;;;0.10;0.00;;;;;;;12.12;100.00;101325.41;10501761;28;20832;-87
2023/01/02 08:29:27;;;;;;;0.00;0.00;;;;;;;11.92;100.00;101346.41;10491012;28;20056;-87
2023/01/02 08:34:29;;;;;;;0.00;0.00;;;;;;;11.99;100.00;101358.69;10514792;28;20048;-87
2023/01/02 08:39:30;;;;;;;0.00;0.00;;;;;;;11.94;100.00;101370.56;10516261;28;20063;-88
2023/01/02 08:44:37;;;;;;;1.08;0.20;;;;;;;11.79;100.00;101388.19;10518917;28;20108;-90
2023/01/02 08:49:46;;;;;;;0.08;0.00;;;;;;;12.05;100.00;101400.16;10523017;28;20073;-90
2023/01/02 08:54:47;;;;;;;0.10;0.10;;;;;;;12.08;100.00;101408.81;10478858;28;20062;-90
2023/01/02 08:59:50;;;;;;;0.28;0.28;;;;;;;12.00;100.00;101422.41;10496769;28;20049;-90
2023/01/02 09:04:51;;;;;;;0.40;0.40;;;;;;;12.04;100.00;101428.53;10498870;28;20396;-90
2023/01/02 09:09:53;;;;;;;0.00;0.00;;;;;;;12.13;100.00;101433.06;10480181;28;20053;-90
2023/01/02 09:14:54;;;;;;;0.00;0.00;;;;;;;11.77;100.00;101459.53;10474172;28;20083;-90
2023/01/02 09:19:56;;;;;;;0.40;0.30;;;;;;;12.08;100.00;101506.97;10525676;28;20043;-91
2023/01/02 09:24:58;;;;;;;0.95;0.63;;;;;;;11.95;100.00;101516.88;10498990;28;20036;-91
2023/01/02 09:29:59;;;;;;;1.02;0.30;;;;;;;11.83;100.00;101542.34;10510235;28;20094;-89
2023/01/02 09:35:03;;;;;;;0.25;0.25;;;;;;;11.72;100.00;101555.81;10510465;28;20052;-90
2023/01/02 09:40:05;;;;;;;1.30;0.40;;;;;;;11.51;100.00;101556.00;10491717;28;20106;-90
2023/01/02 09:45:09;;;;;;;0.13;0.13;;;;;;;11.70;100.00;101560.03;10503314;28;20584;-89
2023/01/02 09:50:27;;;;;;;0.30;0.20;;;;;;;11.80;100.00;101573.25;10515680;28;20128;-90
2023/01/02 09:55:50;;;;;;;0.40;0.35;;;;;;;11.86;100.00;101584.63;10509745;28;20062;-90
2023/01/02 10:00:52;;;;;;;0.05;0.05;;;;;;;11.91;100.00;101597.69;10511172;28;20119;-90
2023/01/02 10:06:04;;;;;;;0.25;0.17;;;;;;;11.74;100.00;101607.47;10498136;28;20101;-90
2023/01/02 10:11:09;;;;;;;0.40;0.30;;;;;;;11.58;100.00;101613.81;10513176;28;20506;-90
2023/01/02 10:16:18;;;;;;;0.38;0.30;;;;;;;11.65;100.00;101620.97;10509108;28;20528;-89
2023/01/02 10:21:25;;;;;;;0.00;0.00;;;;;;;11.66;100.00;101604.63;10533004;28;20059;-89
2023/01/02 10:26:35;;;;;;;1.17;0.55;;;;;;;11.58;100.00;101590.59;10509438;28;20522;-89
2023/01/02 10:31:44;;;;;;;0.15;0.15;;;;;;;11.66;100.00;101581.41;10500109;28;20547;-89
2023/01/02 10:36:47;;;;;;;0.10;0.10;;;;;;;11.47;100.00;101584.22;10519615;28;20086;-91
2023/01/02 10:41:57;;;;;;;0.10;0.10;;;;;;;11.75;100.00;101561.03;10517280;28;20097;-91
2023/01/02 10:47:10;;;;;;;0.80;0.20;;;;;;;11.60;100.00;101560.56;10521409;28;20574;-89
2023/01/02 10:52:26;;;;;;;0.45;0.38;;;;;;;11.48;100.00;101581.69;10508950;28;20036;-90
2023/01/02 10:57:50;;;;;;;0.75;0.45;;;;;;;11.63;100.00;101583.91;10524518;28;20078;-90
2023/01/02 11:02:58;;;;;;;0.52;0.38;;;;;;;12.11;100.00;101582.84;10542201;28;20055;-91
2023/01/02 11:08:10;;;;;;;1.05;0.52;;;;;;;11.58;100.00;101578.59;10504607;28;20044;-90
2023/01/02 11:13:15;;;;;;;0.28;0.17;;;;;;;11.79;100.00;101581.81;10499787;28;20043;-90
2023/01/02 11:18:32;;;;;;;0.35;0.35;;;;;;;12.21;100.00;101607.25;10528471;28;20135;-90
2023/01/02 11:23:41;;;;;;;0.10;0.10;;;;;;;12.00;100.00;101603.19;10521125;28;20052;-90
2023/01/02 11:28:43;;;;;;;2.17;0.13;;;;;;;11.60;100.00;101607.00;10515821;28;20062;-91
2023/01/02 11:33:46;;;;;;;0.00;0.00;;;;;;;11.57;100.00;101612.09;10524779;28;20509;-90
2023/01/02 11:38:57;;;;;;;0.10;0.10;;;;;;;11.81;100.00;101636.94;10526291;28;20090;-88
2023/01/02 11:44:04;;;;;;;0.00;0.00;;;;;;;11.99;100.00;101650.47;10523079;28;20380;-90
2023/01/02 11:49:14;;;;;;;0.10;0.10;;;;;;;12.00;100.00;101654.81;10511096;28;20048;-90
2023/01/02 11:54:21;;;;;;;1.40;0.27;;;;;;;12.02;100.00;101641.94;10520979;28;20048;-90
2023/01/02 11:59:46;;;;;;;0.10;0.10;;;;;;;11.61;100.00;101639.75;10534886;28;20047;-90
2023/01/02 12:04:48;;;;;;;0.17;0.17;;;;;;;12.11;100.00;101646.53;10518230;28;20048;-89
2023/01/02 12:10:07;;;;;;;0.30;0.28;;;;;;;11.82;100.00;101654.19;10524177;28;20052;-89
2023/01/02 12:15:12;;;;;;;0.10;0.10;;;;;;;11.87;100.00;101637.16;10517229;28;20054;-90
2023/01/02 12:20:28;;;;;;;0.80;0.70;;;;;;;12.06;100.00;101639.53;10500594;28;20206;-90
2023/01/02 12:25:33;;;;;;;0.00;0.00;;;;;;;12.06;100.00;101655.00;10523660;28;20510;-91
2023/01/02 12:30:46;;;;;;;0.75;0.65;;;;;;;12.12;100.00;101664.66;10521760;28;20048;-91
2023/01/02 12:36:13;;;;;;;0.00;0.00;;;;;;;11.78;100.00;101685.91;10513771;28;20052;-90
2023/01/02 12:41:35;;;;;;;0.10;0.10;;;;;;;11.88;100.00;101700.84;10523684;28;20105;-90
2023/01/02 12:47:09;;;;;;;0.10;0.10;;;;;;;11.89;100.00;101689.69;10523393;28;20063;-90
2023/01/02 12:52:23;;;;;;;0.22;0.20;;;;;;;11.59;100.00;101700.75;10533882;28;20048;-91
2023/01/02 12:57:45;;;;;;;0.30;0.20;;;;;;;11.71;100.00;101683.13;10525003;28;20061;-91
2023/01/02 13:03:28;;;;;;;0.20;0.20;;;;;;;11.43;100.00;101676.97;10506515;28;20063;-90
2023/01/02 13:08:47;;;;;;;0.43;0.10;;;;;;;11.73;100.00;101681.44;10502724;28;20079;-91
2023/01/02 13:13:49;;;;;;;0.00;0.00;;;;;;;11.93;100.00;101682.94;10518502;28;20445;-91
2023/01/02 13:19:02;;;;;;;0.15;0.15;;;;;;;12.04;100.00;101679.91;10514190;28;20055;-91
2023/01/02 13:24:09;;;;;;;0.03;0.03;;;;;;;11.92;100.00;101687.22;10503307;28;20044;-90
2023/01/02 13:29:10;;;;;;;0.52;0.40;;;;;;;11.55;100.00;101689.44;10504646;28;20095;-92
2023/01/02 13:34:18;;;;;;;0.45;0.20;;;;;;;11.52;100.00;101696.19;10502099;28;20044;-91
2023/01/02 13:39:43;;;;;;;1.08;0.28;;;;;;;11.80;100.00;101705.78;10488929;28;20093;-92
2023/01/02 13:44:49;;;;;;;0.25;0.25;;;;;;;11.42;100.00;101713.97;10484197;28;20044;-91
2023/01/02 13:50:01;;;;;;;0.47;0.25;;;;;;;11.59;100.00;101718.81;10491835;28;20043;-92
2023/01/02 13:55:20;;;;;;;0.00;0.00;;;;;;;11.78;100.00;101707.41;10486225;28;20543;-92
2023/01/02 14:00:35;;;;;;;0.30;0.10;;;;;;;11.68;100.00;101720.84;10461377;28;20044;-92
2023/01/02 14:05:57;;;;;;;0.15;0.15;;;;;;;11.53;100.00;101714.34;10458015;28;20056;-92
2023/01/02 14:11:07;;;;;;;0.10;0.10;;;;;;;11.77;100.00;101721.16;10484966;28;20048;-90
2023/01/02 14:16:14;;;;;;;0.00;0.00;;;;;;;11.53;100.00;101737.56;10460964;28;20040;-92
2023/01/02 14:21:18;;;;;;;0.77;0.43;;;;;;;11.17;100.00;101757.72;10473501;28;20518;-91
2023/01/02 14:26:24;;;;;;;0.20;0.20;;;;;;;11.40;100.00;101754.31;10453435;28;20037;-91
2023/01/02 14:31:34;;;;;;;1.23;0.88;;;;;;;11.17;100.00;101750.00;10459123;28;20448;-90
2023/01/02 14:36:42;;;;;;;0.52;0.40;;;;;;;11.30;100.00;101767.69;10476245;28;20142;-90
2023/01/02 14:47:13;;;;;;;1.98;0.68;;;;;;;11.60;100.00;101782.50;10483151;28;20143;-91
2023/01/02 14:52:24;;;;;;;0.30;0.25;;;;;;;11.60;100.00;101782.50;10480365;28;20049;-91
2023/01/02 14:57:33;;;;;;;0.75;0.40;;;;;;;11.69;100.00;101788.00;10470833;28;20045;-92
2023/01/02 15:02:40;;;;;;;0.90;0.40;;;;;;;11.55;100.00;101784.94;10473062;28;20499;-91
2023/01/02 15:07:49;;;;;;;0.55;0.40;;;;;;;11.40;100.00;101800.75;10468947;28;20049;-91
2023/01/02 15:13:06;;;;;;;0.98;0.85;;;;;;;11.49;100.00;101807.06;10469528;28;20492;-91
2023/01/02 15:18:33;;;;;;;0.45;0.25;;;;;;;11.45;100.00;101813.81;10468653;28;20080;-90
2023/01/02 15:23:41;;;;;;;0.47;0.45;;;;;;;11.76;100.00;101817.53;10496152;28;20052;-90
2023/01/02 15:28:42;;;;;;;0.70;0.50;;;;;;;11.58;100.00;101828.94;10472033;28;20047;-91
2023/01/02 15:33:52;;;;;;;2.00;0.73;;;;;;;11.37;100.00;101839.31;10483567;28;20500;-91
2023/01/02 15:39:13;;;;;;;3.08;0.90;;;;;;;11.59;100.00;101847.84;10471587;28;20048;-91
2023/01/02 15:49:42;;;;;;;0.73;0.73;;;;;;;10.75;100.00;101857.59;10500888;28;19927;-90
2023/01/02 15:54:45;;;;;;;0.45;0.30;;;;;;;11.05;100.00;101880.25;10469314;28;20530;-91
2023/01/02 15:59:47;;;;;;;0.30;0.30;;;;;;;10.96;100.00;101869.56;10456193;28;20103;-90
2023/01/02 16:05:24;;;;;;;0.50;0.43;;;;;;;11.24;100.00;101875.78;10469916;28;20124;-91
2023/01/02 16:10:28;;;;;;;2.05;0.93;;;;;;;11.42;100.00;101881.69;10492664;28;20067;-90
2023/01/02 16:15:34;;;;;;;0.93;0.82;;;;;;;11.29;100.00;101900.06;10492590;28;20049;-91
2023/01/02 16:20:35;;;;;;;1.13;0.77;;;;;;;11.10;100.00;101899.34;10481093;28;20059;-90
2023/01/02 16:25:43;;;;;;;14.57;1.10;;;;;;;10.99;100.00;101922.94;10457823;28;20052;-90
2023/01/02 16:30:45;;;;;;;0.20;0.20;;;;;;;11.33;100.00;101927.75;10462225;28;20048;-90
2023/01/02 16:35:54;;;;;;;1.02;0.93;;;;;;;11.03;100.00;101928.28;10459868;28;20407;-90
2023/01/02 16:41:10;;;;;;;1.60;0.90;;;;;;;11.07;100.00;101932.75;10477978;28;20039;-90
2023/01/02 16:46:14;;;;;;;1.98;1.35;;;;;;;10.86;100.00;101940.50;10479351;28;20044;-90
2023/01/02 16:51:16;;;;;;;2.05;1.38;;;;;;;11.13;100.00;101945.00;10486311;28;20094;-91
2023/01/02 16:56:18;;;;;;;3.00;1.38;;;;;;;11.32;100.00;101958.66;10485624;28;20041;-91
2023/01/02 17:01:21;;;;;;;1.73;0.80;;;;;;;11.25;100.00;101962.69;10478553;28;20040;-91
2023/01/02 17:06:23;;;;;;;1.33;1.20;;;;;;;11.38;100.00;101977.84;10481974;28;20044;-91
2023/01/02 17:11:25;;;;;;;1.80;0.93;;;;;;;11.07;100.00;101989.47;10458820;28;20068;-91
2023/01/02 17:16:41;;;;;;;1.00;0.95;;;;;;;11.36;100.00;101989.78;10465165;28;20444;-88
2023/01/02 17:21:43;;;;;;;1.88;1.10;;;;;;;11.39;100.00;101995.06;10445837;28;20046;-88
2023/01/02 17:26:45;;;;;;;2.67;1.02;;;;;;;11.38;100.00;102002.75;10444692;28;20041;-87
2023/01/02 17:31:47;;;;;;;2.45;0.75;;;;;;;11.25;100.00;102019.44;10428444;28;20049;-84
2023/01/02 17:36:49;;;;;;;1.20;0.60;;;;;;;11.46;100.00;102010.81;10444046;28;20553;-84
2023/01/02 17:41:50;;;;;;;0.60;0.60;;;;;;;11.24;100.00;102015.97;10458313;28;20120;-85
2023/01/02 17:46:52;;;;;;;3.97;0.70;;;;;;;11.12;100.00;102030.94;10445546;28;20567;-85
2023/01/02 17:52:13;;;;;;;1.20;0.88;;;;;;;11.24;100.00;102028.84;10440204;28;20495;-85
2023/01/02 17:57:15;;;;;;;2.45;0.85;;;;;;;11.27;100.00;102052.22;10445644;28;20056;-85
2023/01/02 18:02:20;;;;;;;2.55;0.85;;;;;;;11.24;100.00;102048.63;10427938;28;20069;-86
2023/01/02 18:07:22;;;;;;;1.30;0.98;;;;;;;11.22;100.00;102051.16;10422756;28;20053;-84
2023/01/02 18:12:27;;;;;;;0.50;0.50;;;;;;;10.89;100.00;102063.50;10431088;28;20074;-85
2023/01/02 18:17:28;;;;;;;0.75;0.70;;;;;;;10.75;100.00;102073.19;10476875;28;20504;-86
2023/01/02 18:22:31;;;;;;;1.80;0.93;;;;;;;10.66;100.00;102081.41;10472037;28;20064;-84
2023/01/02 18:27:33;;;;;;;0.20;0.20;;;;;;;10.98;100.00;102087.13;10423330;28;20583;-83
2023/01/02 18:32:38;;;;;;;1.00;0.65;;;;;;;11.15;100.00;102093.00;10425860;28;20061;-85
2023/01/02 18:37:40;;;;;;;8.55;1.83;;;;;;;11.20;100.00;102101.78;10426539;28;20156;-84
2023/01/02 18:42:45;;;;;;;1.08;0.45;;;;;;;10.87;100.00;102117.56;10432274;28;20124;-85
2023/01/02 18:47:52;;;;;;;2.95;1.63;;;;;;;10.86;100.00;102126.13;10418628;28;20700;-85
2023/01/02 18:52:54;;;;;;;0.63;0.43;;;;;;;10.82;100.00;102133.66;10414276;28;20124;-86
2023/01/02 18:58:03;;;;;;;0.22;0.20;;;;;;;10.94;100.00;102144.50;10408581;28;20132;-84
2023/01/02 19:03:21;;;;;;;5.20;0.52;;;;;;;10.82;100.00;102144.84;10411735;28;20785;-84
2023/01/02 19:08:33;;;;;;;0.85;0.50;;;;;;;10.74;100.00;102172.84;10428173;28;20099;-84
2023/01/02 19:13:35;;;;;;;0.47;0.43;;;;;;;10.68;100.00;102172.59;10410721;28;20104;-84
2023/01/02 19:18:36;;;;;;;0.40;0.40;;;;;;;11.06;100.00;102181.13;10402354;28;20080;-84
2023/01/02 19:23:45;;;;;;;0.75;0.47;;;;;;;10.86;100.00;102197.41;10396950;28;20140;-84
2023/01/02 19:29:13;;;;;;;0.70;0.55;;;;;;;10.73;100.00;102204.59;10414078;28;20096;-85
2023/01/02 19:34:30;;;;;;;0.60;0.40;;;;;;;10.77;100.00;102203.91;10409368;28;20144;-84
2023/01/02 19:39:36;;;;;;;0.70;0.43;;;;;;;10.44;100.00;102229.00;10398207;28;20079;-85
2023/01/02 19:44:41;;;;;;;2.30;0.77;;;;;;;10.56;100.00;102233.84;10416930;28;20528;-85
2023/01/02 19:49:43;;;;;;;0.28;0.25;;;;;;;10.61;100.00;102247.84;10451716;28;20041;-85
2023/01/02 19:54:45;;;;;;;1.88;0.98;;;;;;;10.61;100.00;102258.16;10410734;28;20498;-85
2023/01/02 19:59:48;;;;;;;0.52;0.50;;;;;;;10.23;100.00;102265.75;10417219;28;20118;-85
2023/01/02 20:04:52;;;;;;;0.88;0.75;;;;;;;10.31;100.00;102274.75;10426682;28;20048;-83
2023/01/02 20:09:55;;;;;;;0.45;0.40;;;;;;;10.00;100.00;102278.38;10422526;28;20132;-84
2023/01/02 20:14:59;;;;;;;0.68;0.60;;;;;;;9.91;100.00;102282.19;10434270;28;20040;-84
2023/01/02 20:20:05;;;;;;;0.20;0.20;;;;;;;9.93;100.00;102290.88;10434071;28;20045;-85
2023/01/02 20:25:06;;;;;;;0.25;0.25;;;;;;;9.73;100.00;102288.13;10423495;28;20120;-83
2023/01/02 20:30:09;;;;;;;0.28;0.28;;;;;;;9.69;100.00;102293.94;10426814;28;20123;-85
2023/01/02 20:35:12;;;;;;;0.70;0.50;;;;;;;9.68;100.00;102307.63;10419761;28;20130;-84
2023/01/02 20:40:14;;;;;;;0.63;0.60;;;;;;;9.68;100.00;102318.78;10432369;28;20087;-84
2023/01/02 20:45:15;;;;;;;0.82;0.52;;;;;;;9.89;100.00;102330.13;10431927;28;20560;-85
2023/01/02 20:50:17;;;;;;;0.63;0.60;;;;;;;10.07;100.00;102331.06;10401154;28;20115;-84
2023/01/02 20:55:18;;;;;;;0.55;0.45;;;;;;;10.12;100.00;102339.91;10417648;28;20489;-84
2023/01/02 21:00:20;;;;;;;1.67;0.85;;;;;;;10.08;100.00;102347.41;10420642;28;20056;-85
2023/01/02 21:05:21;;;;;;;2.28;0.80;;;;;;;10.21;100.00;102338.59;10409307;28;20073;-83
2023/01/02 21:10:23;;;;;;;1.45;0.88;;;;;;;9.73;100.00;102349.91;10405331;28;20461;-83
2023/01/02 21:20:51;;;;;;;0.20;0.20;;;;;;;9.61;100.00;102369.84;10416834;28;20029;-84
2023/01/02 21:25:53;;;;;;;1.17;0.90;;;;;;;9.66;100.00;102377.03;10379663;22;20394;-80
2023/01/02 21:30:54;;;;;;;1.55;0.85;;;;;;;9.47;100.00;102388.00;10340933;28;20046;-80
2023/01/02 21:35:58;;;;;;;0.47;0.45;;;;;;;9.13;100.00;102390.41;10321773;28;20483;-79
2023/01/02 21:42:14;;;;;;;1.02;0.75;;;;;;;8.94;100.00;102386.78;10329345;28;20046;-80
2023/01/02 21:46:22;;;;;;;0.73;0.50;;;;;;;8.56;100.00;102376.13;10334939;28;20054;-81
2023/01/02 21:51:23;;;;;;;1.17;0.60;;;;;;;8.61;100.00;102393.47;10330919;28;20050;-80
2023/01/02 21:56:32;;;;;;;3.00;0.93;;;;;;;8.73;100.00;102401.91;10346117;28;20046;-80
2023/01/02 22:01:34;;;;;;;0.85;0.30;;;;;;;8.48;100.00;102415.88;10333965;28;20121;-80
2023/01/02 22:06:36;;;;;;;2.03;1.02;;;;;;;8.38;100.00;102416.09;10337172;28;20671;-80
2023/01/02 22:11:57;;;;;;;0.52;0.45;;;;;;;8.13;100.00;102427.47;10337010;28;20093;-79
2023/01/02 22:17:04;;;;;;;0.45;0.45;;;;;;;8.07;100.00;102430.56;10337712;28;20125;-79
2023/01/02 22:22:05;;;;;;;1.00;0.85;;;;;;;8.09;100.00;102438.34;10337598;28;20038;-79
2023/01/02 22:27:11;;;;;;;0.63;0.63;;;;;;;8.23;100.00;102450.31;10338138;28;20125;-79
2023/01/02 22:32:13;;;;;;;2.58;0.93;;;;;;;8.19;100.00;102461.22;10354343;28;20057;-79
2023/01/02 22:37:16;;;;;;;2.67;1.40;;;;;;;8.16;100.00;102466.16;10352246;28;20073;-79
2023/01/02 22:48:07;;;;;;;0.75;0.60;;;;;;;8.19;100.00;102471.50;10325567;28;20121;-79
2023/01/02 22:53:17;;;;;;;0.63;0.45;;;;;;;8.23;100.00;102478.56;10336324;28;20046;-79
2023/01/02 22:58:19;;;;;;;0.57;0.50;;;;;;;8.30;100.00;102478.97;10336274;28;20073;-79
2023/01/02 23:03:21;;;;;;;0.75;0.55;;;;;;;8.64;100.00;102486.16;10350354;28;20042;-79
2023/01/02 23:08:22;;;;;;;0.50;0.32;;;;;;;8.87;100.00;102475.53;10350077;28;20133;-79
2023/01/02 23:13:24;;;;;;;1.85;1.45;;;;;;;8.55;100.00;102479.66;10335198;28;20061;-80
2023/01/02 23:23:50;;;;;;;0.65;0.45;;;;;;;8.44;100.00;102498.66;10333866;28;20042;-79
2023/01/02 23:28:53;;;;;;;2.58;1.10;;;;;;;8.72;100.00;102500.34;10334946;28;20560;-79
2023/01/02 23:34:14;;;;;;;1.00;0.60;;;;;;;8.88;100.00;102503.03;10349569;28;20038;-79
2023/01/02 23:39:18;;;;;;;1.02;0.70;;;;;;;8.86;100.00;102504.59;10334351;28;20074;-79
2023/01/02 23:44:21;;;;;;;3.00;1.20;;;;;;;9.19;100.00;102509.94;10348216;28;20125;-80
2023/01/02 23:49:23;;;;;;;3.03;1.30;;;;;;;8.87;100.00;102511.53;10326652;28;20042;-79